Time;durP1;ratioP1;P1;durP2;ratioP2;P2;SDS_P1;SDS_P2;PMS_P1;PMS_P2;Temp;Humidity;BMP_temperature;BMP_pressure;BME280_temperature;BME280_humidity;BME280_pressure;Samples;Min_cycle;Max_cycle;Signal;HPM_P1;HPM_P2
2022/07/30 00:01:19;;;;;;;4.70;4.20;;;;;;;26.58;47.10;99543.09;4363890;32;33918;-84
2022/07/30 00:03:47;;;;;;;6.97;4.12;;;;;;;26.65;46.90;99549.50;4356071;32;32670;-84
2022/07/30 00:06:17;;;;;;;4.85;4.00;;;;;;;26.51;47.40;99548.38;4364498;32;34535;-84
2022/07/30 00:08:45;;;;;;;6.18;4.03;;;;;;;26.53;47.27;99551.75;4363600;32;32549;-84
2022/07/30 00:11:14;;;;;;;4.10;3.65;;;;;;;26.71;46.73;99560.47;4351841;32;32983;-84
2022/07/30 00:13:43;;;;;;;6.07;4.65;;;;;;;26.61;47.20;99559.84;4375420;32;34066;-84
2022/07/30 00:16:11;;;;;;;5.50;4.30;;;;;;;26.28;48.25;99562.62;4368781;32;33147;-83
2022/07/30 00:18:41;;;;;;;3.95;3.60;;;;;;;26.65;47.22;99555.75;4375669;32;33899;-83
2022/07/30 00:21:10;;;;;;;4.55;4.03;;;;;;;26.71;47.08;99560.47;4350107;32;34284;-83
2022/07/30 00:23:46;;;;;;;4.82;3.67;;;;;;;26.86;46.75;99551.59;4376222;32;33208;-84
2022/07/30 00:26:28;;;;;;;4.60;4.20;;;;;;;26.75;47.31;99550.97;4365130;32;33451;-84
2022/07/30 00:28:57;;;;;;;5.62;3.67;;;;;;;26.58;47.56;99557.47;4375368;32;34088;-84
2022/07/30 00:31:25;;;;;;;5.40;3.92;;;;;;;26.41;48.08;99553.13;4376171;32;33968;-84
2022/07/30 00:33:53;;;;;;;6.00;4.03;;;;;;;26.59;47.50;99551.06;4363127;32;32719;-84
2022/07/30 00:36:22;;;;;;;5.40;4.12;;;;;;;26.61;47.53;99549.00;4363463;32;34263;-84
2022/07/30 00:38:49;;;;;;;4.07;3.70;;;;;;;26.62;47.53;99545.28;4363483;32;34664;-84
2022/07/30 00:41:17;;;;;;;6.72;4.10;;;;;;;26.31;48.23;99547.91;4350599;32;33221;-84
2022/07/30 00:43:45;;;;;;;4.15;3.70;;;;;;;26.28;48.26;99543.69;4363518;32;32915;-84
2022/07/30 00:46:14;;;;;;;5.65;4.25;;;;;;;26.06;48.89;99547.12;4358545;32;32529;-84
2022/07/30 00:48:45;;;;;;;4.35;3.95;;;;;;;26.14;48.65;99541.69;4375817;32;33952;-84
2022/07/30 00:51:13;;;;;;;4.55;3.67;;;;;;;26.37;48.16;99546.38;4368900;32;34286;-84
2022/07/30 00:53:42;;;;;;;4.72;3.97;;;;;;;26.06;48.73;99549.81;4361330;32;33199;-84
2022/07/30 00:56:10;;;;;;;6.00;4.28;;;;;;;25.89;49.09;99545.47;4359847;32;33979;-84
2022/07/30 00:58:40;;;;;;;5.78;4.60;;;;;;;26.03;48.75;99544.78;4361894;32;33323;-84
2022/07/30 01:01:08;;;;;;;5.05;4.30;;;;;;;25.88;49.04;99547.34;4375304;32;34504;-84
2022/07/30 01:03:37;;;;;;;4.57;4.05;;;;;;;26.10;48.66;99548.47;4361436;32;32472;-84
2022/07/30 01:06:05;;;;;;;4.93;4.05;;;;;;;25.91;49.10;99549.69;4374726;32;32859;-84
2022/07/30 01:08:42;;;;;;;5.80;4.70;;;;;;;25.70;49.91;99550.22;4375435;32;34151;-84
2022/07/30 01:11:10;;;;;;;6.45;4.10;;;;;;;25.86;49.27;99557.47;4379484;32;33967;-84
2022/07/30 01:13:42;;;;;;;4.75;3.97;;;;;;;25.88;49.28;99541.94;4351419;32;32249;-83
2022/07/30 01:16:12;;;;;;;5.18;4.28;;;;;;;26.08;48.80;99552.37;4369323;32;33238;-83
2022/07/30 01:21:37;;;;;;;5.82;4.22;;;;;;;25.83;49.38;99552.44;4364703;32;34250;-84
2022/07/30 01:24:27;;;;;;;5.57;3.87;;;;;;;25.72;49.94;99553.56;4362708;32;32293;-82
2022/07/30 01:26:56;;;;;;;7.78;4.07;;;;;;;26.14;48.79;99541.69;4381525;32;33525;-82
2022/07/30 01:29:26;;;;;;;6.30;5.03;;;;;;;25.97;49.32;99542.75;4363040;32;34746;-83
2022/07/30 01:31:58;;;;;;;4.78;3.95;;;;;;;26.10;48.87;99534.94;4362468;32;33503;-82
2022/07/30 01:34:28;;;;;;;6.60;4.30;;;;;;;25.67;50.48;99545.13;4375418;32;33849;-84
2022/07/30 01:36:58;;;;;;;5.03;4.43;;;;;;;25.85;49.77;99549.53;4363658;32;32279;-84
2022/07/30 01:39:31;;;;;;;4.70;4.05;;;;;;;25.88;49.75;99551.91;4363408;32;33358;-84
2022/07/30 01:42:04;;;;;;;5.28;4.20;;;;;;;25.97;49.51;99553.56;4363525;32;33900;-84
2022/07/30 01:44:33;;;;;;;5.57;4.05;;;;;;;26.18;48.84;99551.16;4381069;32;33001;-84
2022/07/30 01:47:01;;;;;;;6.10;4.18;;;;;;;26.19;48.78;99546.59;4361940;32;34294;-83
2022/07/30 01:49:31;;;;;;;6.55;4.35;;;;;;;26.29;48.50;99534.53;4363456;32;33925;-82
2022/07/30 01:52:01;;;;;;;7.37;4.22;;;;;;;26.37;48.24;99535.53;4357089;32;33050;-82
2022/07/30 01:54:31;;;;;;;7.78;4.10;;;;;;;26.13;48.90;99534.59;4362260;32;33342;-82
2022/07/30 01:57:00;;;;;;;4.60;4.20;;;;;;;26.11;48.90;99531.25;4373337;32;33830;-83
2022/07/30 01:59:32;;;;;;;5.93;4.05;;;;;;;26.25;48.76;99527.81;4363036;32;34382;-83
2022/07/30 02:02:01;;;;;;;7.30;3.72;;;;;;;25.91;49.56;99527.22;4342542;32;33669;-83
2022/07/30 02:04:29;;;;;;;9.07;4.50;;;;;;;25.46;51.06;99525.88;4350156;32;32909;-84
2022/07/30 02:07:11;;;;;;;5.20;4.57;;;;;;;25.65;50.38;99514.72;4350509;32;33137;-84
2022/07/30 02:09:47;;;;;;;;;;;;;;;25.42;51.30;99511.88;4355377;32;32843;-82
2022/07/30 02:12:27;;;;;;;8.70;4.07;;;;;;;25.52;50.92;99514.38;4350469;32;33033;-83
2022/07/30 02:15:20;;;;;;;4.87;4.47;;;;;;;25.39;51.16;99506.78;4340073;32;32757;-83
2022/07/30 02:18:01;;;;;;;8.10;4.50;;;;;;;25.28;51.61;99510.66;4373954;32;33508;-83
2022/07/30 02:20:31;;;;;;;5.10;4.45;;;;;;;25.58;50.83;99507.44;4373299;32;33985;-83
2022/07/30 02:23:06;;;;;;;4.28;3.87;;;;;;;25.64;50.64;99496.81;4350318;32;33414;-82
2022/07/30 02:25:37;;;;;;;4.78;4.28;;;;;;;25.44;51.17;99495.47;4361305;32;33176;-82
2022/07/30 02:28:09;;;;;;;4.45;3.90;;;;;;;25.54;50.89;99490.72;4337607;32;33345;-82
2022/07/30 02:30:41;;;;;;;7.87;4.37;;;;;;;25.00;52.84;99488.50;4366989;32;33890;-83
2022/07/30 02:33:11;;;;;;;;;;;;;;;25.29;51.70;99473.69;4372080;32;34701;-82
2022/07/30 02:35:41;;;;;;;5.05;4.32;;;;;;;25.27;51.66;99478.44;4363205;32;33059;-84
2022/07/30 02:38:10;;;;;;;6.35;4.87;;;;;;;25.08;52.18;99474.19;4374860;32;33925;-84
2022/07/30 02:40:42;;;;;;;5.47;4.25;;;;;;;24.72;53.63;99479.00;4362428;32;33987;-83
2022/07/30 02:43:14;;;;;;;5.35;4.85;;;;;;;24.75;53.27;99476.81;4339312;32;33227;-83
2022/07/30 02:45:45;;;;;;;5.30;4.47;;;;;;;24.74;53.31;99477.84;4363138;32;33186;-83
2022/07/30 02:48:14;;;;;;;5.30;4.55;;;;;;;24.60;53.72;99478.47;4369529;32;34043;-83
2022/07/30 02:51:03;;;;;;;4.15;3.75;;;;;;;24.96;52.76;99470.09;4358816;32;33462;-83
2022/07/30 02:53:33;;;;;;;9.23;4.72;;;;;;;24.61;53.74;99477.47;4359918;32;33118;-83
2022/07/30 02:56:02;;;;;;;8.23;4.70;;;;;;;25.01;52.61;99478.53;4359164;32;33126;-84
2022/07/30 02:58:31;;;;;;;6.20;4.25;;;;;;;24.83;53.41;99478.72;4357374;32;32762;-85
2022/07/30 03:01:02;;;;;;;7.97;4.82;;;;;;;24.86;53.14;99474.81;4351937;32;32552;-85
2022/07/30 03:03:31;;;;;;;5.78;4.30;;;;;;;25.17;52.25;99478.59;4351972;32;33895;-84
2022/07/30 03:05:59;;;;;;;6.82;4.45;;;;;;;25.08;52.50;99479.59;4364342;32;32998;-84
2022/07/30 03:08:28;;;;;;;6.40;4.00;;;;;;;24.70;53.62;99487.28;4358905;32;33153;-84
2022/07/30 03:10:56;;;;;;;5.15;4.45;;;;;;;25.04;52.73;99480.91;4364293;32;34129;-84
2022/07/30 03:13:25;;;;;;;5.62;4.50;;;;;;;24.89;53.08;99474.50;4345661;32;33519;-84
2022/07/30 03:15:53;;;;;;;4.70;4.30;;;;;;;24.77;53.72;99476.66;4376424;32;31922;-84
2022/07/30 03:18:22;;;;;;;5.72;3.90;;;;;;;25.02;52.85;99475.69;4376023;32;33813;-84
2022/07/30 03:20:55;;;;;;;8.55;5.18;;;;;;;25.12;52.60;99480.13;4351719;32;32967;-84
2022/07/30 03:23:24;;;;;;;8.48;5.00;;;;;;;24.64;54.45;99471.75;4363771;32;33960;-84
2022/07/30 03:25:56;;;;;;;6.03;4.47;;;;;;;24.66;54.20;99472.41;4346820;32;31959;-84
2022/07/30 03:28:25;;;;;;;5.15;4.53;;;;;;;24.99;53.31;99477.88;4363090;32;33004;-83
2022/07/30 03:30:55;;;;;;;5.32;4.72;;;;;;;24.92;53.21;99471.44;4363853;32;33810;-84
2022/07/30 03:33:24;;;;;;;5.70;4.45;;;;;;;24.87;53.35;99471.94;4351480;32;32531;-84
2022/07/30 03:36:07;;;;;;;15.35;5.10;;;;;;;24.76;53.78;99475.81;4370502;32;32679;-84
2022/07/30 03:38:36;;;;;;;7.32;4.72;;;;;;;24.56;54.17;99474.41;4357025;32;32825;-84
2022/07/30 03:41:06;;;;;;;4.90;4.35;;;;;;;24.22;55.19;99467.19;4369721;32;33625;-83
2022/07/30 03:43:35;;;;;;;5.00;4.50;;;;;;;24.53;54.58;99469.34;4357788;32;32856;-83
2022/07/30 03:46:04;;;;;;;5.68;4.50;;;;;;;24.35;55.00;99468.56;4358075;32;32353;-82
2022/07/30 03:48:33;;;;;;;9.27;4.57;;;;;;;24.64;54.12;99471.75;4370857;32;34578;-82
2022/07/30 03:51:02;;;;;;;5.05;4.53;;;;;;;24.24;55.87;99470.56;4376538;32;34642;-82
2022/07/30 03:53:31;;;;;;;5.65;4.10;;;;;;;24.23;55.59;99474.28;4350724;32;31965;-83
2022/07/30 03:56:02;;;;;;;8.25;4.30;;;;;;;24.52;54.63;99479.28;4364766;32;32589;-83
2022/07/30 03:58:33;;;;;;;5.60;4.65;;;;;;;24.27;55.30;99470.25;4364626;32;34513;-84
2022/07/30 04:01:04;;;;;;;7.25;4.15;;;;;;;24.28;55.56;99477.31;4370080;32;33801;-83
2022/07/30 04:03:33;;;;;;;6.97;3.90;;;;;;;24.60;54.55;99480.34;4364253;32;33899;-83
2022/07/30 04:06:01;;;;;;;5.00;3.70;;;;;;;24.33;55.21;99473.28;4363254;32;32218;-82
2022/07/30 04:08:29;;;;;;;6.07;4.50;;;;;;;24.30;55.23;99468.22;4363783;32;34167;-82
2022/07/30 04:10:58;;;;;;;8.32;4.20;;;;;;;24.23;55.42;99470.72;4351532;32;34262;-82
2022/07/30 04:13:27;;;;;;;4.70;4.12;;;;;;;24.22;55.79;99466.34;4368719;32;33591;-82
2022/07/30 04:16:01;;;;;;;4.93;3.75;;;;;;;24.28;55.51;99466.53;4369035;32;33810;-82
2022/07/30 04:18:52;;;;;;;4.60;4.20;;;;;;;24.16;56.03;99466.97;4370976;32;33916;-82
2022/07/30 04:21:22;;;;;;;8.95;4.07;;;;;;;24.37;55.20;99472.00;4364264;32;34033;-82
2022/07/30 04:23:51;;;;;;;5.07;4.32;;;;;;;24.20;55.85;99481.84;4363645;32;34478;-82
2022/07/30 04:26:35;;;;;;;5.40;3.90;;;;;;;24.16;56.23;99478.59;4364822;32;33482;-82
2022/07/30 04:29:10;;;;;;;4.65;4.07;;;;;;;23.97;56.58;99484.25;4362951;32;33796;-84
2022/07/30 04:31:41;;;;;;;5.72;2.97;;;;;;;24.08;56.36;99486.69;4357536;32;33359;-85
2022/07/30 04:34:14;;;;;;;4.22;3.83;;;;;;;24.03;56.42;99494.41;4362896;32;32932;-84
2022/07/30 04:36:46;;;;;;;5.97;4.00;;;;;;;24.04;56.86;99495.25;4363619;32;33775;-84
2022/07/30 04:39:15;;;;;;;4.37;3.97;;;;;;;23.77;57.33;99500.66;4361843;32;32829;-84
2022/07/30 04:41:44;;;;;;;5.40;3.90;;;;;;;23.62;57.96;99506.75;4361644;32;32850;-84
2022/07/30 04:44:21;;;;;;;6.20;4.37;;;;;;;24.01;56.88;99502.66;4369178;32;34114;-84
2022/07/30 04:46:51;;;;;;;4.45;3.58;;;;;;;23.91;57.38;99503.78;4376052;32;33507;-83
2022/07/30 04:49:22;;;;;;;4.70;3.70;;;;;;;24.06;57.04;99510.25;4350950;32;32759;-84
2022/07/30 04:51:51;;;;;;;4.22;3.67;;;;;;;24.16;56.80;99512.84;4360949;32;34740;-84
2022/07/30 04:54:20;;;;;;;7.03;4.45;;;;;;;24.15;56.69;99514.69;4361064;32;34137;-84
2022/07/30 04:56:49;;;;;;;6.90;4.32;;;;;;;24.17;56.60;99507.31;4348089;32;32784;-84
2022/07/30 04:59:28;;;;;;;4.30;3.90;;;;;;;24.01;57.07;99509.91;4348911;32;34632;-84
2022/07/30 05:01:58;;;;;;;4.15;3.22;;;;;;;24.01;57.21;99513.44;4336240;32;32694;-84
2022/07/30 05:04:27;;;;;;;8.13;3.55;;;;;;;24.35;56.33;99517.97;4335182;32;32392;-84
2022/07/30 05:06:56;;;;;;;5.03;3.95;;;;;;;24.03;57.06;99516.00;4361179;32;33068;-84
2022/07/30 05:09:25;;;;;;;5.60;3.75;;;;;;;24.20;56.68;99516.91;4359788;32;33816;-84
2022/07/30 05:11:55;;;;;;;5.20;3.30;;;;;;;24.64;55.26;99525.75;4348422;32;32854;-84
2022/07/30 05:14:24;;;;;;;5.25;4.15;;;;;;;24.45;56.35;99520.59;4360562;32;33611;-84
2022/07/30 05:16:54;;;;;;;5.07;3.90;;;;;;;24.43;56.88;99533.41;4348497;32;32447;-84
2022/07/30 05:19:23;;;;;;;8.05;3.72;;;;;;;24.65;55.44;99524.72;4348417;32;33667;-84
2022/07/30 05:21:52;;;;;;;8.27;4.55;;;;;;;24.82;55.35;99527.47;4347688;32;32576;-84
2022/07/30 05:24:25;;;;;;;4.07;3.78;;;;;;;24.92;54.99;99520.03;4360405;32;33824;-84
2022/07/30 05:26:57;;;;;;;5.55;3.92;;;;;;;24.85;54.93;99532.53;4355567;32;33687;-84
2022/07/30 05:29:28;;;;;;;8.32;3.87;;;;;;;24.53;56.03;99523.31;4345442;32;34221;-85
2022/07/30 05:31:57;;;;;;;5.15;4.15;;;;;;;24.61;55.64;99517.97;4340537;32;34087;-84
2022/07/30 05:34:31;;;;;;;5.70;4.07;;;;;;;24.71;55.63;99521.34;4343389;32;32449;-84
2022/07/30 05:36:59;;;;;;;3.95;3.55;;;;;;;24.61;56.01;99515.25;4344069;32;32670;-84
2022/07/30 05:39:28;;;;;;;4.32;3.80;;;;;;;24.81;55.45;99521.22;4356874;32;32849;-85
2022/07/30 05:41:58;;;;;;;5.28;3.70;;;;;;;25.00;55.00;99520.91;4343375;32;32565;-85
2022/07/30 05:44:26;;;;;;;4.05;3.47;;;;;;;25.06;54.69;99518.56;4343636;32;32675;-85
2022/07/30 05:46:54;;;;;;;5.20;4.00;;;;;;;24.85;55.18;99521.72;4337546;32;33535;-84
2022/07/30 05:49:23;;;;;;;5.15;4.07;;;;;;;24.76;55.40;99524.41;4344490;32;33117;-85
2022/07/30 05:51:53;;;;;;;5.20;3.87;;;;;;;24.43;56.30;99528.00;4334319;32;33956;-85
2022/07/30 05:54:23;;;;;;;5.82;4.45;;;;;;;24.76;55.47;99531.66;4371744;32;31992;-85
2022/07/30 05:56:55;;;;;;;4.03;3.67;;;;;;;25.02;54.80;99534.28;4368847;32;33706;-84
2022/07/30 05:59:25;;;;;;;5.07;4.05;;;;;;;24.86;55.13;99528.81;4342975;32;32368;-85
2022/07/30 06:01:55;;;;;;;4.82;4.30;;;;;;;24.66;55.69;99522.88;4369748;32;35151;-84
2022/07/30 06:04:24;;;;;;;4.65;4.25;;;;;;;24.96;55.02;99534.91;4359308;32;33037;-84
2022/07/30 06:06:54;;;;;;;4.72;3.37;;;;;;;24.95;54.95;99533.22;4369451;32;32743;-84
2022/07/30 06:09:29;;;;;;;6.30;3.80;;;;;;;24.57;56.32;99532.78;4354278;32;33887;-84
2022/07/30 06:12:07;;;;;;;4.72;4.22;;;;;;;25.10;54.95;99536.16;4356168;32;33375;-84
2022/07/30 06:14:39;;;;;;;5.43;4.15;;;;;;;25.57;53.73;99547.16;4360805;32;33777;-84
2022/07/30 06:17:07;;;;;;;;;;;;;;;25.82;52.29;99542.59;4364575;32;33682;-84
2022/07/30 06:19:37;;;;;;;3.80;3.50;;;;;;;25.63;52.69;99545.63;4371053;32;34437;-85
2022/07/30 06:22:06;;;;;;;6.45;4.18;;;;;;;25.32;53.76;99551.72;4349568;32;33943;-85
2022/07/30 06:24:43;;;;;;;6.00;4.12;;;;;;;25.31;54.21;99543.78;4359178;32;33674;-85
2022/07/30 06:27:12;;;;;;;5.82;3.87;;;;;;;25.45;53.66;99551.25;4366659;32;32898;-84
2022/07/30 06:29:41;;;;;;;7.37;4.05;;;;;;;25.55;53.16;99549.22;4346986;32;34519;-84
2022/07/30 06:32:11;;;;;;;5.53;4.05;;;;;;;25.69;52.99;99553.09;4358652;32;34803;-84
2022/07/30 06:34:39;;;;;;;9.40;4.97;;;;;;;25.83;52.67;99548.84;4356595;32;32813;-84
2022/07/30 06:37:11;;;;;;;9.07;4.53;;;;;;;26.16;52.03;99545.09;4366463;32;32697;-84
2022/07/30 06:39:47;;;;;;;7.45;3.97;;;;;;;26.52;50.43;99550.06;4353744;32;33146;-85
2022/07/30 06:42:28;;;;;;;5.95;3.95;;;;;;;26.51;50.18;99549.22;4369794;32;32082;-86
2022/07/30 06:45:00;;;;;;;7.97;4.53;;;;;;;26.52;50.74;99552.78;4368828;32;33001;-86
2022/07/30 06:47:30;;;;;;;9.85;3.78;;;;;;;26.77;50.07;99548.91;4361050;32;31839;-86
2022/07/30 06:50:02;;;;;;;8.25;3.90;;;;;;;26.41;50.73;99553.97;4360075;32;37200;-87
2022/07/30 06:52:32;;;;;;;5.43;3.87;;;;;;;26.22;51.16;99563.34;4358531;32;35283;-87
2022/07/30 06:55:03;;;;;;;4.97;4.00;;;;;;;26.05;52.50;99553.56;4357450;32;33504;-86
2022/07/30 06:57:38;;;;;;;5.12;3.72;;;;;;;26.50;50.85;99546.69;4369680;32;31841;-87
2022/07/30 07:00:12;;;;;;;5.28;3.60;;;;;;;26.89;50.21;99535.00;4345177;32;33737;-87
2022/07/30 07:05:30;;;;;;;4.68;3.58;;;;;;;26.88;50.31;99534.16;4370026;32;34149;-86
2022/07/30 07:08:00;;;;;;;6.15;4.32;;;;;;;27.23;49.21;99532.75;4370879;32;33596;-86
2022/07/30 07:10:33;;;;;;;6.50;4.53;;;;;;;27.17;49.38;99528.06;4361930;32;34114;-86
2022/07/30 07:13:05;;;;;;;6.12;3.62;;;;;;;27.26;49.64;99529.69;4364658;32;33738;-86
2022/07/30 07:15:39;;;;;;;6.22;4.37;;;;;;;27.02;51.34;99529.84;4346944;32;33158;-87
2022/07/30 07:18:16;;;;;;;7.32;4.12;;;;;;;27.10;49.37;99532.50;4357877;32;32111;-87
2022/07/30 07:20:46;;;;;;;5.97;4.35;;;;;;;27.93;47.58;99522.69;4351290;32;33680;-86
2022/07/30 07:23:16;;;;;;;7.50;4.22;;;;;;;28.00;47.05;99512.75;4346990;32;33430;-84
2022/07/30 07:25:46;;;;;;;4.70;3.70;;;;;;;27.52;49.05;99521.16;4347889;32;34413;-83
2022/07/30 07:28:16;;;;;;;7.07;3.58;;;;;;;27.59;48.42;99521.28;4357324;32;34075;-83
2022/07/30 07:30:45;;;;;;;4.07;3.75;;;;;;;27.65;49.36;99517.81;4375309;32;33542;-83
2022/07/30 07:33:20;;;;;;;5.90;4.22;;;;;;;27.68;47.91;99514.75;4360727;32;33316;-83
2022/07/30 07:35:57;;;;;;;4.12;3.20;;;;;;;27.67;49.78;99523.91;4349245;32;33715;-83
2022/07/30 07:38:26;;;;;;;4.93;4.12;;;;;;;27.94;47.53;99533.34;4343336;32;31585;-83
2022/07/30 07:40:55;;;;;;;6.55;3.87;;;;;;;28.40;46.37;99526.94;4354546;32;33159;-83
2022/07/30 07:43:24;;;;;;;4.72;3.47;;;;;;;28.42;45.63;99530.28;4348404;32;33399;-83
2022/07/30 07:45:53;;;;;;;4.10;3.65;;;;;;;28.25;45.94;99544.03;4374381;32;34498;-84
2022/07/30 07:48:22;;;;;;;6.25;4.37;;;;;;;28.21;46.47;99542.72;4357779;32;33997;-84
2022/07/30 07:50:50;;;;;;;5.90;4.15;;;;;;;28.37;45.34;99540.88;4356696;32;33277;-85
2022/07/30 07:53:21;;;;;;;4.55;4.15;;;;;;;27.73;47.01;99544.91;4361508;32;33497;-84
2022/07/30 07:55:51;;;;;;;7.57;4.87;;;;;;;26.90;48.68;99561.06;4350842;32;33828;-85
2022/07/30 07:58:28;;;;;;;6.57;4.25;;;;;;;27.12;48.31;99562.16;4374218;32;34331;-84
2022/07/30 08:01:02;;;;;;;5.90;4.55;;;;;;;27.42;47.82;99558.53;4361691;32;31976;-85
2022/07/30 08:03:32;;;;;;;5.03;4.18;;;;;;;26.84;49.15;99561.78;4345995;32;32774;-85
2022/07/30 08:06:05;;;;;;;5.50;4.60;;;;;;;26.90;49.15;99561.91;4369663;32;33071;-84
2022/07/30 08:08:44;;;;;;;4.30;3.90;;;;;;;27.11;49.03;99561.31;4365306;32;33147;-84
2022/07/30 08:11:18;;;;;;;6.65;5.12;;;;;;;27.15;48.57;99559.06;4359795;32;33897;-84
2022/07/30 08:13:49;;;;;;;9.23;5.05;;;;;;;27.21;48.79;99564.63;4370495;32;34513;-83
2022/07/30 08:16:38;;;;;;;7.90;3.70;;;;;;;26.83;50.57;99568.22;4369352;32;34593;-83
2022/07/30 08:19:10;;;;;;;4.85;4.45;;;;;;;26.89;50.14;99572.91;4362462;32;33228;-84
2022/07/30 08:21:39;;;;;;;6.93;3.95;;;;;;;27.21;49.46;99574.63;4364063;32;32747;-83
2022/07/30 08:24:14;;;;;;;5.40;3.70;;;;;;;27.43;49.29;99575.63;4370273;32;33879;-84
2022/07/30 08:26:43;;;;;;;4.57;4.03;;;;;;;27.73;49.06;99574.75;4369081;32;33581;-83
2022/07/30 08:29:14;;;;;;;4.47;4.07;;;;;;;27.74;47.71;99573.72;4373932;32;33109;-83
2022/07/30 08:31:45;;;;;;;4.87;4.37;;;;;;;27.57;48.99;99578.41;4351944;32;33069;-83
2022/07/30 08:34:14;;;;;;;7.43;4.12;;;;;;;27.88;47.95;99573.94;4360668;32;34410;-83
2022/07/30 08:36:43;;;;;;;7.03;3.92;;;;;;;27.63;48.39;99582.28;4368616;32;33192;-83
2022/07/30 08:39:17;;;;;;;6.00;4.30;;;;;;;27.60;48.18;99589.94;4361435;32;33143;-84
2022/07/30 08:41:51;;;;;;;4.97;4.30;;;;;;;28.28;48.00;99587.09;4356992;32;33443;-83
2022/07/30 08:44:21;;;;;;;9.35;4.90;;;;;;;28.02;49.58;99584.00;4368572;32;33964;-83
2022/07/30 08:46:58;;;;;;;6.40;4.53;;;;;;;28.15;49.29;99584.16;4357663;32;33456;-83
2022/07/30 08:49:39;;;;;;;7.68;5.40;;;;;;;27.94;50.38;99584.06;4368158;32;33650;-84
2022/07/30 08:52:09;;;;;;;5.00;4.37;;;;;;;28.12;50.44;99581.84;4340092;32;34532;-83
2022/07/30 08:54:39;;;;;;;5.35;4.75;;;;;;;27.80;51.07;99581.13;4363722;32;33343;-83
2022/07/30 08:57:11;;;;;;;10.57;5.28;;;;;;;27.83;50.76;99589.94;4352423;32;34516;-83
2022/07/30 08:59:41;;;;;;;7.95;4.53;;;;;;;27.31;51.62;99592.34;4346556;32;32350;-83
2022/07/30 09:02:34;;;;;;;5.32;4.70;;;;;;;27.15;51.62;99597.00;4366505;32;34433;-83
2022/07/30 09:05:03;;;;;;;6.78;5.45;;;;;;;27.12;51.88;99600.94;4350884;32;33591;-84
2022/07/30 09:07:47;;;;;;;8.13;4.80;;;;;;;27.00;52.42;99602.31;4373591;32;33643;-83
2022/07/30 09:10:23;;;;;;;9.27;5.75;;;;;;;27.00;52.60;99608.56;4364796;32;34851;-83
2022/07/30 09:12:52;;;;;;;9.60;5.90;;;;;;;26.87;53.68;99605.63;4359739;32;33388;-83
2022/07/30 09:15:22;;;;;;;7.80;6.15;;;;;;;26.95;54.13;99604.72;4363711;32;34487;-83
2022/07/30 09:17:57;;;;;;;7.40;6.15;;;;;;;26.99;53.85;99595.22;4361850;32;33563;-83
2022/07/30 09:23:05;;;;;;;7.68;5.65;;;;;;;26.69;54.24;99592.31;4343074;32;34503;-83
2022/07/30 09:25:47;;;;;;;6.50;5.90;;;;;;;26.62;54.66;99594.00;4358885;32;34765;-83
2022/07/30 09:28:38;;;;;;;8.93;7.07;;;;;;;26.52;54.37;99598.81;4354604;32;34538;-83
2022/07/30 09:31:09;;;;;;;8.68;6.30;;;;;;;26.06;55.50;99603.94;4363581;32;32782;-83
2022/07/30 09:33:44;;;;;;;6.97;6.28;;;;;;;26.34;55.02;99601.69;4344679;32;33327;-83
2022/07/30 09:36:41;;;;;;;8.98;6.72;;;;;;;26.20;55.22;99615.94;4362779;32;33953;-83
2022/07/30 09:39:33;;;;;;;7.43;6.72;;;;;;;26.21;54.48;99623.91;4369250;32;34887;-83
2022/07/30 09:42:16;;;;;;;12.80;6.50;;;;;;;26.15;55.14;99650.78;4338159;32;34521;-83
2022/07/30 09:44:46;;;;;;;30.50;10.63;;;;;;;25.64;58.68;99679.84;4348210;32;33276;-83
2022/07/30 09:47:43;;;;;;;17.98;10.43;;;;;;;25.58;61.36;99680.47;4349509;32;32829;-82
2022/07/30 09:50:15;;;;;;;24.45;11.07;;;;;;;25.74;60.77;99627.28;4362150;32;33660;-83
2022/07/30 09:53:07;;;;;;;17.98;10.57;;;;;;;25.30;62.64;99607.78;4353838;32;33592;-82
2022/07/30 09:58:39;;;;;;;14.60;9.93;;;;;;;24.34;65.26;99594.56;4367592;32;33394;-83
2022/07/30 10:01:14;;;;;;;14.45;10.65;;;;;;;24.01;67.47;99601.59;4357617;32;32997;-83
2022/07/30 10:03:48;;;;;;;13.98;10.38;;;;;;;23.91;68.20;99603.53;4350740;32;32363;-83
2022/07/30 10:06:32;;;;;;;13.13;9.95;;;;;;;24.40;65.08;99588.56;4355726;32;33872;-83
2022/07/30 10:09:05;;;;;;;12.70;9.85;;;;;;;23.86;67.82;99595.94;4358687;32;33609;-83
2022/07/30 10:11:48;;;;;;;14.13;11.40;;;;;;;24.14;66.80;99596.63;4374680;32;34246;-83
2022/07/30 10:14:17;;;;;;;11.35;10.15;;;;;;;23.62;69.19;99615.41;4349819;32;32593;-83
2022/07/30 10:16:58;;;;;;;13.85;10.73;;;;;;;23.97;68.00;99613.69;4358791;32;33083;-83
2022/07/30 10:19:35;;;;;;;13.20;10.07;;;;;;;23.99;68.19;99604.47;4362698;32;34968;-83
2022/07/30 10:22:14;;;;;;;14.95;10.40;;;;;;;24.27;67.31;99610.53;4350118;32;33337;-83
2022/07/30 10:24:53;;;;;;;11.45;10.25;;;;;;;24.23;67.52;99609.16;4338700;32;32468;-83
2022/07/30 10:27:32;;;;;;;15.00;10.55;;;;;;;24.35;67.63;99607.03;4339774;32;32981;-84
2022/07/30 10:30:09;;;;;;;15.27;10.50;;;;;;;24.21;68.16;99616.59;4374352;32;35000;-83
2022/07/30 10:32:42;;;;;;;13.18;10.60;;;;;;;24.46;67.41;99611.34;4351057;32;34480;-84
2022/07/30 10:35:12;;;;;;;13.90;10.90;;;;;;;24.57;67.21;99616.47;4372294;32;33160;-83
2022/07/30 10:38:00;;;;;;;14.00;11.02;;;;;;;24.52;67.46;99625.03;4340379;32;32888;-83
2022/07/30 10:40:36;;;;;;;12.13;10.52;;;;;;;24.40;68.47;99626.34;4367541;32;33474;-83
2022/07/30 10:46:09;;;;;;;14.93;11.43;;;;;;;24.57;67.44;99626.41;4373538;32;32413;-83
2022/07/30 10:49:16;;;;;;;11.23;9.82;;;;;;;24.89;66.14;99620.31;4375211;32;34741;-83
2022/07/30 10:54:46;;;;;;;13.57;10.13;;;;;;;24.54;68.26;99624.88;4355746;32;32776;-84
2022/07/30 10:57:20;;;;;;;15.27;10.98;;;;;;;24.68;67.64;99618.03;4347812;32;32293;-83
2022/07/30 11:00:10;;;;;;;12.93;10.57;;;;;;;24.93;66.19;99616.28;4344389;32;34259;-83
2022/07/30 11:03:09;;;;;;;12.45;10.50;;;;;;;24.84;67.22;99603.75;4337119;32;34352;-83
2022/07/30 11:05:47;;;;;;;;;;;;;;;24.87;67.48;99600.72;4359117;32;33139;-83
2022/07/30 11:08:27;;;;;;;15.30;11.20;;;;;;;24.86;67.37;99594.47;4344701;32;31802;-83
2022/07/30 11:11:27;;;;;;;20.73;12.37;;;;;;;24.99;67.40;99581.34;4351793;32;33048;-83
2022/07/30 11:14:17;;;;;;;15.98;11.12;;;;;;;25.21;66.84;99581.75;4349564;32;32985;-83
2022/07/30 11:16:50;;;;;;;13.95;12.07;;;;;;;25.10;67.13;99569.41;4340440;32;36630;-83
2022/07/30 11:19:23;;;;;;;11.40;9.38;;;;;;;25.14;67.56;99565.38;4366640;32;32810;-83
2022/07/30 11:22:37;;;;;;;10.50;9.48;;;;;;;24.75;68.43;99555.12;4355004;32;33550;-83
2022/07/30 11:25:08;;;;;;;9.05;8.07;;;;;;;24.96;68.37;99556.53;4342765;32;33342;-83
2022/07/30 11:27:47;;;;;;;9.82;8.38;;;;;;;25.04;68.26;99543.87;4355140;32;33628;-83
2022/07/30 11:30:17;;;;;;;7.68;6.87;;;;;;;25.32;68.05;99550.87;4340609;32;32285;-83
2022/07/30 11:32:49;;;;;;;8.50;7.62;;;;;;;24.98;68.80;99549.97;4348226;32;33974;-83
2022/07/30 11:35:24;;;;;;;7.53;6.60;;;;;;;25.41;66.81;99549.88;4360676;32;32458;-83
2022/07/30 11:38:06;;;;;;;7.62;7.03;;;;;;;25.27;66.37;99549.53;4339466;32;32993;-83
2022/07/30 11:40:41;;;;;;;7.87;7.10;;;;;;;25.57;66.19;99547.16;4349710;32;32469;-83
2022/07/30 11:43:24;;;;;;;7.35;6.62;;;;;;;25.35;67.56;99545.13;4362533;32;32285;-83
2022/07/30 11:46:22;;;;;;;7.97;6.50;;;;;;;25.51;65.95;99540.59;4339043;32;33742;-83
2022/07/30 11:49:07;;;;;;;8.73;7.15;;;;;;;25.81;65.39;99540.91;4360873;32;34192;-84
2022/07/30 11:51:46;;;;;;;7.78;6.68;;;;;;;25.94;65.38;99540.41;4342301;32;33062;-83
2022/07/30 11:57:01;;;;;;;9.15;8.27;;;;;;;25.49;66.69;99534.50;4346399;32;33465;-83
2022/07/30 11:59:57;;;;;;;8.00;7.30;;;;;;;25.60;67.95;99527.06;4319534;32;32704;-84
2022/07/30 12:02:29;;;;;;;7.85;7.15;;;;;;;26.12;64.57;99515.84;4356913;32;31584;-83
2022/07/30 12:04:57;;;;;;;8.52;7.68;;;;;;;26.12;64.72;99522.09;4344276;32;33430;-84
2022/07/30 12:07:27;;;;;;;8.50;6.93;;;;;;;26.05;65.66;99510.28;4345222;32;32138;-83
2022/07/30 12:10:19;;;;;;;7.80;6.07;;;;;;;25.90;64.14;99518.25;4344220;32;33584;-84
2022/07/30 12:13:15;;;;;;;5.75;5.25;;;;;;;26.24;63.30;99509.88;4350932;32;33421;-83
2022/07/30 12:18:30;;;;;;;7.53;6.47;;;;;;;25.89;64.00;99504.91;4345447;32;32975;-84
2022/07/30 12:23:52;;;;;;;7.35;6.60;;;;;;;25.64;66.03;99496.81;4343985;32;33678;-84
2022/07/30 12:26:26;;;;;;;5.87;5.28;;;;;;;25.72;64.26;99485.97;4355286;32;33096;-84